sensor_id;sensor_type;location;lat;lon;timestamp;pressure;altitude;pressure_sealevel;temperature;humidity
16690;BME280;8458;52.220;9.884;2022-08-30T00:01:02;101361.53;;;18.77;74.75
16690;BME280;8458;52.220;9.884;2022-08-30T00:03:27;101358.81;;;18.72;75.21
16690;BME280;8458;52.220;9.884;2022-08-30T00:05:54;101361.63;;;18.72;75.29
16690;BME280;8458;52.220;9.884;2022-08-30T00:08:21;101364.50;;;18.67;75.77
16690;BME280;8458;52.220;9.884;2022-08-30T00:10:48;101363.13;;;18.64;75.83
16690;BME280;8458;52.220;9.884;2022-08-30T00:13:15;101363.50;;;18.58;75.92
16690;BME280;8458;52.220;9.884;2022-08-30T00:15:43;101368.56;;;18.56;75.69
16690;BME280;8458;52.220;9.884;2022-08-30T00:18:11;101366.69;;;18.51;75.82
16690;BME280;8458;52.220;9.884;2022-08-30T00:20:37;101374.34;;;18.45;76.19
16690;BME280;8458;52.220;9.884;2022-08-30T00:23:05;101374.97;;;18.42;76.62
16690;BME280;8458;52.220;9.884;2022-08-30T00:25:32;101378.88;;;18.41;76.73
16690;BME280;8458;52.220;9.884;2022-08-30T00:27:58;101360.41;;;18.40;76.61
16690;BME280;8458;52.220;9.884;2022-08-30T00:30:25;101368.66;;;18.32;76.85
16690;BME280;8458;52.220;9.884;2022-08-30T00:32:51;101370.06;;;18.29;77.22
16690;BME280;8458;52.220;9.884;2022-08-30T00:35:21;101357.25;;;18.23;77.56
16690;BME280;8458;52.220;9.884;2022-08-30T00:37:48;101347.22;;;18.17;77.35
16690;BME280;8458;52.220;9.884;2022-08-30T00:40:16;101357.31;;;18.18;77.06
16690;BME280;8458;52.220;9.884;2022-08-30T00:42:45;101361.03;;;18.13;77.46
16690;BME280;8458;52.220;9.884;2022-08-30T00:45:16;101357.91;;;18.15;77.11
16690;BME280;8458;52.220;9.884;2022-08-30T00:47:43;101354.81;;;18.16;77.42
16690;BME280;8458;52.220;9.884;2022-08-30T00:50:11;101350.63;;;18.14;77.83
16690;BME280;8458;52.220;9.884;2022-08-30T00:52:42;101357.69;;;18.11;77.27
16690;BME280;8458;52.220;9.884;2022-08-30T00:55:10;101344.25;;;18.08;77.64
16690;BME280;8458;52.220;9.884;2022-08-30T00:57:38;101344.56;;;18.06;77.41
16690;BME280;8458;52.220;9.884;2022-08-30T01:00:06;101345.97;;;18.04;77.25
16690;BME280;8458;52.220;9.884;2022-08-30T01:02:33;101344.91;;;18.00;77.48
16690;BME280;8458;52.220;9.884;2022-08-30T01:05:00;101339.59;;;17.98;78.08
16690;BME280;8458;52.220;9.884;2022-08-30T01:07:27;101341.25;;;17.99;77.79
16690;BME280;8458;52.220;9.884;2022-08-30T01:09:55;101342.16;;;17.95;76.63
16690;BME280;8458;52.220;9.884;2022-08-30T01:12:22;101347.25;;;17.87;74.49
16690;BME280;8458;52.220;9.884;2022-08-30T01:14:49;101351.84;;;17.78;73.54
16690;BME280;8458;52.220;9.884;2022-08-30T01:17:16;101352.00;;;17.63;74.19
16690;BME280;8458;52.220;9.884;2022-08-30T01:19:47;101345.44;;;17.48;75.60
16690;BME280;8458;52.220;9.884;2022-08-30T01:22:20;101350.25;;;17.43;76.15
16690;BME280;8458;52.220;9.884;2022-08-30T01:24:51;101358.41;;;17.39;76.67
16690;BME280;8458;52.220;9.884;2022-08-30T01:27:20;101355.63;;;17.39;76.77
16690;BME280;8458;52.220;9.884;2022-08-30T01:29:47;101357.03;;;17.36;77.23
16690;BME280;8458;52.220;9.884;2022-08-30T01:32:16;101352.56;;;17.35;77.81
16690;BME280;8458;52.220;9.884;2022-08-30T01:34:43;101360.13;;;17.35;78.01
16690;BME280;8458;52.220;9.884;2022-08-30T01:37:13;101354.78;;;17.38;78.32
16690;BME280;8458;52.220;9.884;2022-08-30T01:39:43;101364.25;;;17.43;78.65
16690;BME280;8458;52.220;9.884;2022-08-30T01:42:12;101359.50;;;17.43;78.87
16690;BME280;8458;52.220;9.884;2022-08-30T01:44:40;101370.44;;;17.45;78.59
16690;BME280;8458;52.220;9.884;2022-08-30T01:47:07;101372.38;;;17.44;78.62
16690;BME280;8458;52.220;9.884;2022-08-30T01:49:33;101371.00;;;17.42;78.51
16690;BME280;8458;52.220;9.884;2022-08-30T01:52:00;101377.16;;;17.44;78.59
16690;BME280;8458;52.220;9.884;2022-08-30T01:54:27;101366.00;;;17.38;79.20
16690;BME280;8458;52.220;9.884;2022-08-30T01:56:53;101362.94;;;17.35;79.21
16690;BME280;8458;52.220;9.884;2022-08-30T01:59:21;101361.50;;;17.37;79.00
16690;BME280;8458;52.220;9.884;2022-08-30T02:01:48;101364.38;;;17.32;79.29
16690;BME280;8458;52.220;9.884;2022-08-30T02:04:14;101355.97;;;17.32;78.93
16690;BME280;8458;52.220;9.884;2022-08-30T02:06:42;101358.22;;;17.30;78.79
16690;BME280;8458;52.220;9.884;2022-08-30T02:09:09;101360.53;;;17.23;78.46
16690;BME280;8458;52.220;9.884;2022-08-30T02:11:36;101365.84;;;17.25;78.25
16690;BME280;8458;52.220;9.884;2022-08-30T02:14:03;101363.06;;;17.19;78.91
16690;BME280;8458;52.220;9.884;2022-08-30T02:16:32;101362.88;;;17.11;79.44
16690;BME280;8458;52.220;9.884;2022-08-30T02:18:58;101353.66;;;17.10;79.38
16690;BME280;8458;52.220;9.884;2022-08-30T02:21:25;101352.25;;;17.08;78.73
16690;BME280;8458;52.220;9.884;2022-08-30T02:23:53;101354.53;;;17.06;79.03
16690;BME280;8458;52.220;9.884;2022-08-30T02:26:20;101355.94;;;17.03;79.29
16690;BME280;8458;52.220;9.884;2022-08-30T02:28:47;101357.06;;;17.02;79.38
16690;BME280;8458;52.220;9.884;2022-08-30T02:31:14;101358.19;;;17.01;79.31
16690;BME280;8458;52.220;9.884;2022-08-30T02:33:42;101356.75;;;17.03;79.78
16690;BME280;8458;52.220;9.884;2022-08-30T02:36:09;101357.31;;;17.06;79.80
16690;BME280;8458;52.220;9.884;2022-08-30T02:38:35;101350.56;;;17.07;79.25
16690;BME280;8458;52.220;9.884;2022-08-30T02:41:02;101354.53;;;17.06;79.36
16690;BME280;8458;52.220;9.884;2022-08-30T02:43:28;101354.53;;;17.00;79.30
16690;BME280;8458;52.220;9.884;2022-08-30T02:45:55;101357.34;;;17.00;79.71
16690;BME280;8458;52.220;9.884;2022-08-30T02:48:21;101359.91;;;16.97;80.07
16690;BME280;8458;52.220;9.884;2022-08-30T02:50:50;101352.59;;;17.01;79.93
16690;BME280;8458;52.220;9.884;2022-08-30T02:53:18;101351.75;;;17.00;79.53
16690;BME280;8458;52.220;9.884;2022-08-30T02:55:46;101357.34;;;17.00;79.31
16690;BME280;8458;52.220;9.884;2022-08-30T02:58:13;101357.09;;;16.97;79.23
16690;BME280;8458;52.220;9.884;2022-08-30T03:00:41;101357.09;;;16.97;79.22
16690;BME280;8458;52.220;9.884;2022-08-30T03:03:07;101356.28;;;16.96;79.00
16690;BME280;8458;52.220;9.884;2022-08-30T03:05:34;101355.41;;;16.96;79.61
16690;BME280;8458;52.220;9.884;2022-08-30T03:08:02;101352.91;;;16.94;80.16
16690;BME280;8458;52.220;9.884;2022-08-30T03:10:29;101352.31;;;16.97;80.46
16690;BME280;8458;52.220;9.884;2022-08-30T03:12:56;101356.84;;;16.93;80.63
16690;BME280;8458;52.220;9.884;2022-08-30T03:15:23;101367.47;;;16.96;80.60
16690;BME280;8458;52.220;9.884;2022-08-30T03:17:50;101361.28;;;16.99;80.54
16690;BME280;8458;52.220;9.884;2022-08-30T03:20:17;101361.88;;;16.96;80.50
16690;BME280;8458;52.220;9.884;2022-08-30T03:22:44;101356.84;;;16.93;80.58
16690;BME280;8458;52.220;9.884;2022-08-30T03:25:13;101359.09;;;16.91;81.22
16690;BME280;8458;52.220;9.884;2022-08-30T03:27:39;101356.84;;;16.93;81.32
16690;BME280;8458;52.220;9.884;2022-08-30T03:30:07;101356.84;;;16.93;81.19
16690;BME280;8458;52.220;9.884;2022-08-30T03:32:34;101358.50;;;16.94;81.47
16690;BME280;8458;52.220;9.884;2022-08-30T03:35:01;101357.94;;;16.97;82.04
16690;BME280;8458;52.220;9.884;2022-08-30T03:37:28;101361.28;;;16.99;82.75
16690;BME280;8458;52.220;9.884;2022-08-30T03:39:54;101364.34;;;17.03;83.54
16690;BME280;8458;52.220;9.884;2022-08-30T03:42:22;101354.53;;;17.06;84.13
16690;BME280;8458;52.220;9.884;2022-08-30T03:44:49;101358.69;;;17.08;84.29
16690;BME280;8458;52.220;9.884;2022-08-30T03:47:16;101358.44;;;17.05;84.37
16690;BME280;8458;52.220;9.884;2022-08-30T03:49:42;101364.84;;;17.10;84.85
16690;BME280;8458;52.220;9.884;2022-08-30T03:52:09;101360.13;;;17.06;85.33
16690;BME280;8458;52.220;9.884;2022-08-30T03:54:35;101364.63;;;17.01;85.89
16690;BME280;8458;52.220;9.884;2022-08-30T03:57:03;101363.22;;;17.04;86.07
16690;BME280;8458;52.220;9.884;2022-08-30T03:59:31;101360.13;;;17.06;86.07
16690;BME280;8458;52.220;9.884;2022-08-30T04:01:58;101367.38;;;17.07;85.58
16690;BME280;8458;52.220;9.884;2022-08-30T04:04:24;101364.34;;;17.03;85.61
16690;BME280;8458;52.220;9.884;2022-08-30T04:06:51;101363.47;;;17.08;85.45
16690;BME280;8458;52.220;9.884;2022-08-30T04:09:18;101363.50;;;17.02;85.74
16690;BME280;8458;52.220;9.884;2022-08-30T04:11:45;101360.66;;;17.08;85.65
16690;BME280;8458;52.220;9.884;2022-08-30T04:14:11;101369.69;;;16.99;85.70
16690;BME280;8458;52.220;9.884;2022-08-30T04:16:39;101359.06;;;16.96;86.10
16690;BME280;8458;52.220;9.884;2022-08-30T04:19:06;101369.72;;;16.94;86.26
16690;BME280;8458;52.220;9.884;2022-08-30T04:21:32;101368.06;;;16.93;86.64
16690;BME280;8458;52.220;9.884;2022-08-30T04:23:59;101375.31;;;16.94;86.69
16690;BME280;8458;52.220;9.884;2022-08-30T04:26:26;101371.41;;;16.95;86.75
16690;BME280;8458;52.220;9.884;2022-08-30T04:28:52;101375.31;;;16.94;87.13
16690;BME280;8458;52.220;9.884;2022-08-30T04:31:19;101375.97;;;16.81;87.94
16690;BME280;8458;52.220;9.884;2022-08-30T04:33:48;101384.06;;;16.82;88.25
16690;BME280;8458;52.220;9.884;2022-08-30T04:36:15;101386.63;;;16.74;88.73
16690;BME280;8458;52.220;9.884;2022-08-30T04:38:42;101383.25;;;16.77;88.77
16690;BME280;8458;52.220;9.884;2022-08-30T04:41:10;101386.63;;;16.74;88.73
16690;BME280;8458;52.220;9.884;2022-08-30T04:43:39;101389.19;;;16.70;89.05
16690;BME280;8458;52.220;9.884;2022-08-30T04:46:06;101394.50;;;16.72;89.04
16690;BME280;8458;52.220;9.884;2022-08-30T04:48:33;101396.19;;;16.67;89.43
16690;BME280;8458;52.220;9.884;2022-08-30T04:51:03;101397.88;;;16.69;89.57
16690;BME280;8458;52.220;9.884;2022-08-30T04:53:30;101391.13;;;16.70;89.59
16690;BME280;8458;52.220;9.884;2022-08-30T04:55:56;101394.75;;;16.75;89.44
16690;BME280;8458;52.220;9.884;2022-08-30T04:58:23;101406.19;;;16.79;89.38
16690;BME280;8458;52.220;9.884;2022-08-30T05:00:49;101410.44;;;16.76;89.14
16690;BME280;8458;52.220;9.884;2022-08-30T05:03:16;101411.56;;;16.75;89.42
16690;BME280;8458;52.220;9.884;2022-08-30T05:05:46;101411.56;;;16.75;89.22
16690;BME280;8458;52.220;9.884;2022-08-30T05:08:16;101408.50;;;16.66;89.78
16690;BME280;8458;52.220;9.884;2022-08-30T05:10:45;101406.00;;;16.65;90.23
16690;BME280;8458;52.220;9.884;2022-08-30T05:13:12;101416.91;;;16.66;90.77
16690;BME280;8458;52.220;9.884;2022-08-30T05:15:39;101417.47;;;16.69;90.62
16690;BME280;8458;52.220;9.884;2022-08-30T05:18:06;101424.72;;;16.70;90.94
16690;BME280;8458;52.220;9.884;2022-08-30T05:20:34;101419.13;;;16.70;90.97
16690;BME280;8458;52.220;9.884;2022-08-30T05:23:01;101426.44;;;16.65;91.53
16690;BME280;8458;52.220;9.884;2022-08-30T05:25:31;101428.13;;;16.61;92.42
16690;BME280;8458;52.220;9.884;2022-08-30T05:27:58;101433.75;;;16.61;92.72
16690;BME280;8458;52.220;9.884;2022-08-30T05:30:26;101429.25;;;16.65;92.87
16690;BME280;8458;52.220;9.884;2022-08-30T05:32:53;101423.06;;;16.69;91.81
16690;BME280;8458;52.220;9.884;2022-08-30T05:35:20;101435.44;;;16.62;91.84
16690;BME280;8458;52.220;9.884;2022-08-30T05:37:46;101436.03;;;16.49;92.34
16690;BME280;8458;52.220;9.884;2022-08-30T05:40:13;101431.59;;;16.43;93.38
16690;BME280;8458;52.220;9.884;2022-08-30T05:42:43;101429.09;;;16.36;94.74
16690;BME280;8458;52.220;9.884;2022-08-30T05:45:10;101427.41;;;16.35;94.95
16690;BME280;8458;52.220;9.884;2022-08-30T05:47:37;101440.00;;;16.38;95.70
16690;BME280;8458;52.220;9.884;2022-08-30T05:50:05;101427.66;;;16.39;96.17
16690;BME280;8458;52.220;9.884;2022-08-30T05:52:33;101427.97;;;16.42;95.53
16690;BME280;8458;52.220;9.884;2022-08-30T05:55:00;101420.97;;;16.40;95.86
16690;BME280;8458;52.220;9.884;2022-08-30T05:57:31;101425.72;;;16.39;96.58
16690;BME280;8458;52.220;9.884;2022-08-30T05:59:59;101428.50;;;16.44;96.47
16690;BME280;8458;52.220;9.884;2022-08-30T06:02:25;101427.09;;;16.42;96.99
16690;BME280;8458;52.220;9.884;2022-08-30T06:04:52;101431.00;;;16.46;97.06
16690;BME280;8458;52.220;9.884;2022-08-30T06:07:18;101431.56;;;16.48;97.06
16690;BME280;8458;52.220;9.884;2022-08-30T06:09:45;101429.88;;;16.52;96.41
16690;BME280;8458;52.220;9.884;2022-08-30T06:12:11;101426.78;;;16.54;96.15
16690;BME280;8458;52.220;9.884;2022-08-30T06:14:38;101436.56;;;16.56;96.01
16690;BME280;8458;52.220;9.884;2022-08-30T06:17:06;101429.25;;;16.65;95.42
16690;BME280;8458;52.220;9.884;2022-08-30T06:19:32;101430.94;;;16.61;95.53
16690;BME280;8458;52.220;9.884;2022-08-30T06:21:59;101426.75;;;16.64;95.55
16690;BME280;8458;52.220;9.884;2022-08-30T06:24:26;101424.19;;;16.67;95.63
16690;BME280;8458;52.220;9.884;2022-08-30T06:26:52;101429.22;;;16.71;95.32
16690;BME280;8458;52.220;9.884;2022-08-30T06:29:20;101433.41;;;16.73;94.48
16690;BME280;8458;52.220;9.884;2022-08-30T06:31:46;101439.56;;;16.75;94.64
16690;BME280;8458;52.220;9.884;2022-08-30T06:34:15;101442.63;;;16.74;94.89
16690;BME280;8458;52.220;9.884;2022-08-30T06:36:42;101452.72;;;16.75;95.27
16690;BME280;8458;52.220;9.884;2022-08-30T06:39:09;101451.56;;;16.76;95.36
16690;BME280;8458;52.220;9.884;2022-08-30T06:41:38;101448.50;;;16.77;95.57
16690;BME280;8458;52.220;9.884;2022-08-30T06:44:05;101449.31;;;16.83;95.74
16690;BME280;8458;52.220;9.884;2022-08-30T06:46:34;101453.78;;;16.84;96.12
16690;BME280;8458;52.220;9.884;2022-08-30T06:49:02;101447.91;;;16.91;96.72
16690;BME280;8458;52.220;9.884;2022-08-30T06:51:32;101455.47;;;16.90;96.08
16690;BME280;8458;52.220;9.884;2022-08-30T06:53:59;101447.03;;;16.85;95.91
16690;BME280;8458;52.220;9.884;2022-08-30T06:56:26;101452.09;;;16.83;95.98
16690;BME280;8458;52.220;9.884;2022-08-30T06:58:53;101454.38;;;16.86;96.38
16690;BME280;8458;52.220;9.884;2022-08-30T07:01:21;101454.31;;;16.91;96.58
16690;BME280;8458;52.220;9.884;2022-08-30T07:03:49;101450.41;;;16.92;96.91
16690;BME280;8458;52.220;9.884;2022-08-30T07:06:16;101460.47;;;16.98;96.67
16690;BME280;8458;52.220;9.884;2022-08-30T07:08:45;101452.59;;;17.00;96.60
16690;BME280;8458;52.220;9.884;2022-08-30T07:11:11;101461.56;;;17.02;96.97
16690;BME280;8458;52.220;9.884;2022-08-30T07:13:38;101463.22;;;17.03;97.16
16690;BME280;8458;52.220;9.884;2022-08-30T07:16:08;101468.81;;;17.03;96.59
16690;BME280;8458;52.220;9.884;2022-08-30T07:18:35;101469.09;;;17.07;96.41
16690;BME280;8458;52.220;9.884;2022-08-30T07:21:17;101467.38;;;17.11;96.83
16690;BME280;8458;52.220;9.884;2022-08-30T07:23:47;101464.75;;;17.25;95.25
16690;BME280;8458;52.220;9.884;2022-08-30T07:26:16;101459.97;;;17.26;94.56
16690;BME280;8458;52.220;9.884;2022-08-30T07:28:45;101466.94;;;17.33;94.28
16690;BME280;8458;52.220;9.884;2022-08-30T07:31:13;101467.44;;;17.41;94.19
16690;BME280;8458;52.220;9.884;2022-08-30T07:33:40;101468.56;;;17.39;94.46
16690;BME280;8458;52.220;9.884;2022-08-30T07:36:07;101466.06;;;17.38;93.44
16690;BME280;8458;52.220;9.884;2022-08-30T07:38:34;101466.09;;;17.33;93.59
16690;BME280;8458;52.220;9.884;2022-08-30T07:41:02;101467.81;;;17.29;92.45
16690;BME280;8458;52.220;9.884;2022-08-30T07:43:30;101471.22;;;17.20;92.58
16690;BME280;8458;52.220;9.884;2022-08-30T07:46:00;101464.03;;;17.09;94.39
16690;BME280;8458;52.220;9.884;2022-08-30T07:48:27;101459.31;;;17.05;94.92
16690;BME280;8458;52.220;9.884;2022-08-30T07:50:53;101472.50;;;16.99;95.56
16690;BME280;8458;52.220;9.884;2022-08-30T07:53:20;101472.25;;;16.95;97.34
16690;BME280;8458;52.220;9.884;2022-08-30T07:55:46;101472.84;;;16.87;96.50
16690;BME280;8458;52.220;9.884;2022-08-30T07:58:14;101475.09;;;16.80;97.69
16690;BME280;8458;52.220;9.884;2022-08-30T08:00:40;101471.75;;;16.78;98.22
16690;BME280;8458;52.220;9.884;2022-08-30T08:03:09;101471.22;;;16.71;99.12
16690;BME280;8458;52.220;9.884;2022-08-30T08:05:37;101475.13;;;16.70;100.00
16690;BME280;8458;52.220;9.884;2022-08-30T08:08:04;101476.81;;;16.71;100.00
16690;BME280;8458;52.220;9.884;2022-08-30T08:10:31;101474.31;;;16.69;100.00
16690;BME280;8458;52.220;9.884;2022-08-30T08:12:58;101477.66;;;16.71;100.00
16690;BME280;8458;52.220;9.884;2022-08-30T08:15:27;101481.28;;;16.77;100.00
16690;BME280;8458;52.220;9.884;2022-08-30T08:17:54;101477.03;;;16.84;100.00
16690;BME280;8458;52.220;9.884;2022-08-30T08:20:21;101485.72;;;16.93;100.00
16690;BME280;8458;52.220;9.884;2022-08-30T08:22:47;101484.84;;;16.98;100.00
16690;BME280;8458;52.220;9.884;2022-08-30T08:25:14;101497.69;;;17.04;100.00
16690;BME280;8458;52.220;9.884;2022-08-30T08:27:41;101492.34;;;17.08;100.00
16690;BME280;8458;52.220;9.884;2022-08-30T08:30:08;101493.97;;;17.14;100.00
16690;BME280;8458;52.220;9.884;2022-08-30T08:32:36;101487.22;;;17.15;100.00
16690;BME280;8458;52.220;9.884;2022-08-30T08:35:03;101493.03;;;17.29;100.00
16690;BME280;8458;52.220;9.884;2022-08-30T08:37:30;101485.44;;;17.34;100.00
16690;BME280;8458;52.220;9.884;2022-08-30T08:39:56;101494.38;;;17.36;100.00
16690;BME280;8458;52.220;9.884;2022-08-30T08:42:27;101492.63;;;17.46;100.00
16690;BME280;8458;52.220;9.884;2022-08-30T08:45:00;101496.00;;;17.48;100.00
16690;BME280;8458;52.220;9.884;2022-08-30T08:47:35;101497.66;;;17.49;100.00
16690;BME280;8458;52.220;9.884;2022-08-30T08:50:11;101498.16;;;17.56;99.44
16690;BME280;8458;52.220;9.884;2022-08-30T08:52:48;101497.06;;;17.52;99.65
16690;BME280;8458;52.220;9.884;2022-08-30T08:55:32;101492.09;;;17.44;99.11
16690;BME280;8458;52.220;9.884;2022-08-30T08:58:00;101490.97;;;17.45;99.38
16690;BME280;8458;52.220;9.884;2022-08-30T09:00:27;101491.97;;;17.59;99.37
16690;BME280;8458;52.220;9.884;2022-08-30T09:02:57;101485.84;;;17.52;98.95
16690;BME280;8458;52.220;9.884;2022-08-30T09:05:28;101490.56;;;17.62;97.85
16690;BME280;8458;52.220;9.884;2022-08-30T09:08:00;101482.09;;;17.67;98.18
16690;BME280;8458;52.220;9.884;2022-08-30T09:10:27;101485.66;;;17.78;96.95
16690;BME280;8458;52.220;9.884;2022-08-30T09:12:54;101491.78;;;17.80;95.59
16690;BME280;8458;52.220;9.884;2022-08-30T09:15:23;101492.66;;;17.75;93.98
16690;BME280;8458;52.220;9.884;2022-08-30T09:17:53;101495.81;;;17.68;94.84
16690;BME280;8458;52.220;9.884;2022-08-30T09:20:26;101490.75;;;17.70;94.87
16690;BME280;8458;52.220;9.884;2022-08-30T09:22:53;101489.38;;;17.68;94.69
16690;BME280;8458;52.220;9.884;2022-08-30T09:25:23;101490.81;;;17.65;95.06
16690;BME280;8458;52.220;9.884;2022-08-30T09:27:51;101491.38;;;17.62;95.28
16690;BME280;8458;52.220;9.884;2022-08-30T09:30:20;101489.16;;;17.59;94.99
16690;BME280;8458;52.220;9.884;2022-08-30T09:32:52;101495.66;;;17.54;94.78
16690;BME280;8458;52.220;9.884;2022-08-30T09:35:20;101491.16;;;17.53;95.40
16690;BME280;8458;52.220;9.884;2022-08-30T09:37:53;101490.91;;;17.50;94.45
16690;BME280;8458;52.220;9.884;2022-08-30T09:40:25;101492.03;;;17.49;95.61
16690;BME280;8458;52.220;9.884;2022-08-30T09:43:02;101493.97;;;17.53;95.77
16690;BME280;8458;52.220;9.884;2022-08-30T09:45:31;101493.06;;;17.63;95.77
16690;BME280;8458;52.220;9.884;2022-08-30T09:48:00;101491.91;;;17.69;95.21
16690;BME280;8458;52.220;9.884;2022-08-30T09:50:48;101495.09;;;17.87;93.66
16690;BME280;8458;52.220;9.884;2022-08-30T09:53:23;101483.25;;;17.95;90.06
16690;BME280;8458;52.220;9.884;2022-08-30T09:55:55;101483.03;;;17.91;89.73
16690;BME280;8458;52.220;9.884;2022-08-30T09:58:34;101482.19;;;17.91;89.61
16690;BME280;8458;52.220;9.884;2022-08-30T10:01:09;101484.75;;;17.82;90.23
16690;BME280;8458;52.220;9.884;2022-08-30T10:03:41;101477.94;;;17.94;88.92
16690;BME280;8458;52.220;9.884;2022-08-30T10:06:20;101477.31;;;18.02;88.85
16690;BME280;8458;52.220;9.884;2022-08-30T10:08:57;101480.31;;;18.10;89.86
16690;BME280;8458;52.220;9.884;2022-08-30T10:11:35;101482.72;;;18.22;89.81
16690;BME280;8458;52.220;9.884;2022-08-30T10:14:24;101480.69;;;18.28;89.23
16690;BME280;8458;52.220;9.884;2022-08-30T10:16:59;101479.00;;;18.27;90.42
16690;BME280;8458;52.220;9.884;2022-08-30T10:19:44;101473.59;;;18.36;89.92
16690;BME280;8458;52.220;9.884;2022-08-30T10:22:16;101483.94;;;18.40;89.97
16690;BME280;8458;52.220;9.884;2022-08-30T10:24:47;101481.75;;;18.32;89.79
16690;BME280;8458;52.220;9.884;2022-08-30T10:27:19;101476.41;;;18.36;89.50
16690;BME280;8458;52.220;9.884;2022-08-30T10:29:49;101482.84;;;18.36;89.82
16690;BME280;8458;52.220;9.884;2022-08-30T10:32:21;101484.16;;;18.44;89.90
16690;BME280;8458;52.220;9.884;2022-08-30T10:34:52;101480.91;;;18.56;89.22
16690;BME280;8458;52.220;9.884;2022-08-30T10:37:24;101484.72;;;18.65;88.54
16690;BME280;8458;52.220;9.884;2022-08-30T10:39:55;101480.53;;;18.43;87.13
16690;BME280;8458;52.220;9.884;2022-08-30T10:42:27;101480.44;;;18.49;87.60
16690;BME280;8458;52.220;9.884;2022-08-30T10:45:00;101478.16;;;18.51;87.47
16690;BME280;8458;52.220;9.884;2022-08-30T10:47:34;101480.78;;;18.66;85.29
16690;BME280;8458;52.220;9.884;2022-08-30T10:50:09;101476.25;;;18.70;85.82
16690;BME280;8458;52.220;9.884;2022-08-30T10:52:40;101481.50;;;18.77;85.66
16690;BME280;8458;52.220;9.884;2022-08-30T10:55:14;101472.66;;;18.89;85.42
16690;BME280;8458;52.220;9.884;2022-08-30T10:57:41;101478.03;;;18.85;85.66
16690;BME280;8458;52.220;9.884;2022-08-30T11:00:11;101476.69;;;19.02;84.76
16690;BME280;8458;52.220;9.884;2022-08-30T11:03:06;101473.06;;;19.01;83.56
16690;BME280;8458;52.220;9.884;2022-08-30T11:05:59;101475.03;;;19.20;83.68
16690;BME280;8458;52.220;9.884;2022-08-30T11:08:44;101456.09;;;19.44;82.81
16690;BME280;8458;52.220;9.884;2022-08-30T11:11:21;101457.00;;;19.73;78.59
16690;BME280;8458;52.220;9.884;2022-08-30T11:13:52;101459.44;;;19.79;77.65
16690;BME280;8458;52.220;9.884;2022-08-30T11:16:33;101466.47;;;19.96;77.73
16690;BME280;8458;52.220;9.884;2022-08-30T11:19:00;101457.31;;;20.04;76.23
16690;BME280;8458;52.220;9.884;2022-08-30T11:21:33;101464.22;;;20.26;77.44
16690;BME280;8458;52.220;9.884;2022-08-30T11:24:03;101464.22;;;20.53;77.65
16690;BME280;8458;52.220;9.884;2022-08-30T11:26:57;101458.47;;;20.72;76.01
16690;BME280;8458;52.220;9.884;2022-08-30T11:29:31;101452.69;;;21.05;76.26
16690;BME280;8458;52.220;9.884;2022-08-30T11:32:00;101451.88;;;21.27;72.62
16690;BME280;8458;52.220;9.884;2022-08-30T11:34:54;101442.50;;;21.41;70.48
16690;BME280;8458;52.220;9.884;2022-08-30T11:37:40;101445.63;;;21.53;72.49
16690;BME280;8458;52.220;9.884;2022-08-30T11:40:43;101442.28;;;21.74;71.08
16690;BME280;8458;52.220;9.884;2022-08-30T11:43:49;101440.59;;;21.95;69.56
16690;BME280;8458;52.220;9.884;2022-08-30T11:46:19;101446.09;;;22.00;69.73
16690;BME280;8458;52.220;9.884;2022-08-30T11:48:50;101436.81;;;22.09;69.27
16690;BME280;8458;52.220;9.884;2022-08-30T11:54:29;101429.44;;;22.30;68.37
16690;BME280;8458;52.220;9.884;2022-08-30T11:57:08;101420.91;;;22.53;68.03
16690;BME280;8458;52.220;9.884;2022-08-30T11:59:47;101425.75;;;22.70;67.34
16690;BME280;8458;52.220;9.884;2022-08-30T12:02:46;101423.94;;;22.83;65.55
16690;BME280;8458;52.220;9.884;2022-08-30T12:05:49;101416.84;;;23.12;66.15
16690;BME280;8458;52.220;9.884;2022-08-30T12:08:42;101423.63;;;23.45;65.84
16690;BME280;8458;52.220;9.884;2022-08-30T12:14:31;101406.03;;;23.96;62.21
16690;BME280;8458;52.220;9.884;2022-08-30T12:16:58;101409.97;;;24.12;60.46
16690;BME280;8458;52.220;9.884;2022-08-30T12:19:44;101395.94;;;24.25;61.90
16690;BME280;8458;52.220;9.884;2022-08-30T12:22:16;101393.00;;;24.42;59.16
16690;BME280;8458;52.220;9.884;2022-08-30T12:24:46;101393.69;;;24.39;58.50
16690;BME280;8458;52.220;9.884;2022-08-30T12:27:22;101387.91;;;24.27;59.35
16690;BME280;8458;52.220;9.884;2022-08-30T12:29:51;101391.03;;;24.34;58.96
16690;BME280;8458;52.220;9.884;2022-08-30T12:32:18;101377.56;;;24.61;59.76
16690;BME280;8458;52.220;9.884;2022-08-30T12:34:51;101373.72;;;24.86;59.93
16690;BME280;8458;52.220;9.884;2022-08-30T12:37:22;101376.88;;;25.06;59.21
16690;BME280;8458;52.220;9.884;2022-08-30T12:40:00;101378.38;;;25.24;57.22
16690;BME280;8458;52.220;9.884;2022-08-30T12:42:29;101371.44;;;25.34;55.35
16690;BME280;8458;52.220;9.884;2022-08-30T12:44:59;101376.56;;;25.20;53.85
16690;BME280;8458;52.220;9.884;2022-08-30T12:47:29;101369.09;;;25.15;53.73
16690;BME280;8458;52.220;9.884;2022-08-30T12:49:58;101370.16;;;25.32;55.44
16690;BME280;8458;52.220;9.884;2022-08-30T12:52:30;101360.50;;;25.57;54.23
16690;BME280;8458;52.220;9.884;2022-08-30T12:55:08;101360.34;;;25.75;52.83
16690;BME280;8458;52.220;9.884;2022-08-30T12:57:38;101359.38;;;25.71;50.96
16690;BME280;8458;52.220;9.884;2022-08-30T13:00:08;101355.81;;;25.62;51.04
16690;BME280;8458;52.220;9.884;2022-08-30T13:02:44;101353.34;;;25.72;50.63
16690;BME280;8458;52.220;9.884;2022-08-30T13:05:41;101347.91;;;25.80;50.19
16690;BME280;8458;52.220;9.884;2022-08-30T13:08:12;101347.81;;;26.01;49.40
16690;BME280;8458;52.220;9.884;2022-08-30T13:10:52;101345.34;;;26.24;50.29
16690;BME280;8458;52.220;9.884;2022-08-30T13:13:39;101333.13;;;26.48;49.05
16690;BME280;8458;52.220;9.884;2022-08-30T13:16:25;101330.00;;;26.53;48.40
16690;BME280;8458;52.220;9.884;2022-08-30T13:18:53;101326.72;;;26.51;48.05
16690;BME280;8458;52.220;9.884;2022-08-30T13:21:24;101334.03;;;26.52;48.70